createdAt,value
2023-03-30T00:00:23.342Z,1.77
2023-03-30T00:02:53.958Z,1.77
2023-03-30T00:05:23.983Z,2.00
2023-03-30T00:07:53.416Z,2.30
2023-03-30T00:10:22.361Z,2.43
2023-03-30T00:12:52.032Z,2.37
2023-03-30T00:15:22.105Z,1.70
2023-03-30T00:17:51.350Z,2.20
2023-03-30T00:20:19.571Z,2.87
2023-03-30T00:22:47.961Z,1.90
2023-03-30T00:25:18.691Z,2.10
2023-03-30T00:27:46.767Z,2.03
2023-03-30T00:30:17.280Z,2.20
2023-03-30T00:32:45.783Z,2.50
2023-03-30T00:35:13.921Z,2.23
2023-03-30T00:37:45.795Z,2.50
2023-03-30T00:40:20.221Z,1.97
2023-03-30T00:42:49.081Z,2.37
2023-03-30T00:45:20.924Z,2.37
2023-03-30T00:47:55.715Z,1.93
2023-03-30T00:50:27.474Z,2.13
2023-03-30T00:52:57.601Z,1.80
2023-03-30T00:55:32.066Z,1.80
2023-03-30T00:58:00.826Z,1.80
2023-03-30T01:00:28.891Z,2.07
2023-03-30T01:03:02.390Z,2.80
2023-03-30T01:05:31.607Z,1.70
2023-03-30T01:08:01.178Z,1.93
2023-03-30T01:10:30.714Z,2.07
2023-03-30T01:12:59.073Z,2.10
2023-03-30T01:15:28.488Z,1.60
2023-03-30T01:18:07.038Z,1.87
2023-03-30T01:21:08.653Z,2.23
2023-03-30T01:24:21.151Z,1.90
2023-03-30T01:26:55.371Z,1.67
2023-03-30T01:29:46.018Z,2.17
2023-03-30T01:32:44.297Z,1.67
2023-03-30T01:35:40.478Z,2.03
2023-03-30T01:38:43.848Z,1.70
2023-03-30T01:41:20.109Z,2.40
2023-03-30T01:43:53.854Z,2.10
2023-03-30T01:46:30.837Z,2.10
2023-03-30T01:49:04.818Z,2.40
2023-03-30T01:51:39.613Z,2.00
2023-03-30T01:54:11.870Z,1.70
2023-03-30T01:56:48.274Z,1.90
2023-03-30T01:59:21.723Z,1.60
2023-03-30T02:01:54.114Z,2.13
2023-03-30T02:04:24.680Z,2.27
2023-03-30T02:06:56.695Z,2.20
2023-03-30T02:09:27.107Z,2.00
2023-03-30T02:11:57.480Z,2.50
2023-03-30T02:14:29.799Z,2.13
2023-03-30T02:17:03.331Z,2.40
2023-03-30T02:19:31.725Z,2.70
2023-03-30T02:22:00.226Z,2.73
2023-03-30T02:24:31.645Z,2.10
2023-03-30T02:27:02.972Z,2.10
2023-03-30T02:29:32.625Z,2.20
2023-03-30T02:32:01.214Z,1.87
2023-03-30T02:34:49.357Z,2.40
2023-03-30T02:37:43.437Z,2.00
2023-03-30T02:40:29.660Z,2.10
2023-03-30T02:43:14.096Z,2.30
2023-03-30T02:45:52.433Z,1.70
2023-03-30T02:48:35.645Z,1.83
2023-03-30T02:51:28.616Z,2.40
2023-03-30T02:54:02.295Z,2.03
2023-03-30T02:56:38.613Z,2.83
2023-03-30T02:59:14.121Z,2.30
2023-03-30T03:01:46.176Z,2.37
2023-03-30T03:04:15.530Z,2.20
2023-03-30T03:06:44.101Z,1.97
2023-03-30T03:09:12.032Z,2.30
2023-03-30T03:11:40.040Z,2.00
2023-03-30T03:14:09.605Z,2.17
2023-03-30T03:16:37.792Z,2.60
2023-03-30T03:19:05.682Z,1.70
2023-03-30T03:21:33.622Z,2.30
2023-03-30T03:24:01.661Z,2.07
2023-03-30T03:26:29.736Z,2.20
2023-03-30T03:28:58.073Z,1.93
2023-03-30T03:31:28.118Z,2.17
2023-03-30T03:33:56.129Z,1.90
2023-03-30T03:36:24.778Z,2.03
2023-03-30T03:38:53.205Z,2.77
2023-03-30T03:41:21.402Z,2.10
2023-03-30T03:43:49.406Z,2.63
2023-03-30T03:46:17.321Z,2.40
2023-03-30T03:48:46.736Z,3.00
2023-03-30T03:51:14.542Z,2.60
2023-03-30T03:53:42.589Z,2.10
2023-03-30T03:56:11.802Z,2.20
2023-03-30T03:58:39.942Z,2.23
2023-03-30T04:01:08.693Z,2.73
2023-03-30T04:03:36.805Z,2.10
2023-03-30T04:06:06.623Z,2.60
2023-03-30T04:08:34.867Z,2.23
2023-03-30T04:11:08.664Z,2.63
2023-03-30T04:13:36.983Z,2.53
2023-03-30T04:16:05.364Z,2.23
2023-03-30T04:18:34.533Z,2.67
2023-03-30T04:21:05.551Z,2.03
2023-03-30T04:23:37.439Z,2.50
2023-03-30T04:26:07.881Z,2.70
2023-03-30T04:28:36.985Z,2.23
2023-03-30T04:31:10.588Z,2.63
2023-03-30T04:33:47.363Z,2.80
2023-03-30T04:36:17.875Z,1.97
2023-03-30T04:38:58.411Z,2.50
2023-03-30T04:41:33.345Z,2.27
2023-03-30T04:44:03.293Z,2.27
2023-03-30T04:46:31.296Z,2.43
2023-03-30T04:48:59.404Z,2.53
2023-03-30T04:51:27.438Z,2.40
2023-03-30T04:53:56.861Z,2.30
2023-03-30T04:56:25.142Z,2.67
2023-03-30T04:58:53.097Z,2.60
2023-03-30T05:01:21.504Z,2.63
2023-03-30T05:03:49.989Z,2.73
2023-03-30T05:06:18.004Z,2.13
2023-03-30T05:08:46.028Z,2.67
2023-03-30T05:11:16.020Z,2.73
2023-03-30T05:13:44.335Z,2.80
2023-03-30T05:16:12.606Z,1.90
2023-03-30T05:18:40.467Z,2.77
2023-03-30T05:21:14.813Z,2.00
2023-03-30T05:23:43.074Z,2.57
2023-03-30T05:26:11.075Z,1.93
2023-03-30T05:28:40.588Z,2.50
2023-03-30T05:31:08.647Z,2.33
2023-03-30T05:33:38.881Z,2.17
2023-03-30T05:36:07.610Z,2.30
2023-03-30T05:38:37.145Z,2.87
2023-03-30T05:41:06.773Z,1.87
2023-03-30T05:43:35.063Z,2.30
2023-03-30T05:46:05.517Z,2.60
2023-03-30T05:48:33.698Z,2.03
2023-03-30T05:51:02.621Z,3.37
2023-03-30T05:53:31.002Z,2.00
2023-03-30T05:55:58.890Z,2.87
2023-03-30T05:58:27.537Z,2.77
2023-03-30T06:00:59.088Z,2.53
2023-03-30T06:03:28.485Z,2.70
2023-03-30T06:05:56.455Z,2.93
2023-03-30T06:08:24.421Z,2.97
2023-03-30T06:10:56.660Z,2.50
2023-03-30T06:13:25.309Z,2.13
2023-03-30T06:15:53.416Z,2.40
2023-03-30T06:18:21.557Z,2.33
2023-03-30T06:20:51.837Z,2.40
2023-03-30T06:23:20.199Z,3.20
2023-03-30T06:25:53.008Z,2.37
2023-03-30T06:28:21.597Z,3.13
2023-03-30T06:30:49.868Z,2.30
2023-03-30T06:33:18.724Z,2.67
2023-03-30T06:35:48.078Z,3.00
2023-03-30T06:38:18.275Z,2.67
2023-03-30T06:40:46.712Z,2.47
2023-03-30T06:43:18.135Z,2.53
2023-03-30T06:45:51.339Z,2.20
2023-03-30T06:48:20.831Z,2.40
2023-03-30T06:50:49.367Z,2.30
2023-03-30T06:53:19.100Z,2.37
2023-03-30T06:55:51.944Z,2.17
2023-03-30T06:58:20.130Z,3.10
2023-03-30T07:00:48.306Z,2.80
2023-03-30T07:03:19.166Z,2.37
2023-03-30T07:05:48.879Z,3.13
2023-03-30T07:08:19.928Z,2.63
2023-03-30T07:10:48.428Z,2.57
2023-03-30T07:13:17.635Z,2.97
2023-03-30T07:15:46.829Z,2.50
2023-03-30T07:18:15.534Z,2.37
2023-03-30T07:20:45.170Z,2.10
2023-03-30T07:23:13.365Z,2.03
2023-03-30T07:25:42.992Z,2.10
2023-03-30T07:28:10.894Z,2.70
2023-03-30T07:30:39.143Z,2.47
2023-03-30T07:33:07.465Z,2.70
2023-03-30T07:35:35.603Z,2.03
2023-03-30T07:40:33.376Z,2.20
2023-03-30T07:43:02.847Z,2.13
2023-03-30T07:45:31.311Z,1.70
2023-03-30T07:47:59.504Z,2.27
2023-03-30T07:50:27.528Z,2.57
2023-03-30T07:52:55.928Z,2.13
2023-03-30T07:55:23.992Z,2.28
2023-03-30T07:57:52.688Z,2.30
2023-03-30T08:00:23.845Z,1.70
2023-03-30T08:02:52.479Z,1.80
2023-03-30T08:05:20.586Z,2.03
2023-03-30T08:07:48.861Z,2.17
2023-03-30T08:10:17.034Z,2.08
2023-03-30T08:12:45.101Z,1.88
2023-03-30T08:15:13.594Z,1.75
2023-03-30T08:17:42.806Z,1.75
2023-03-30T08:20:11.766Z,1.80
2023-03-30T08:22:40.440Z,1.95
2023-03-30T08:25:09.296Z,1.80
2023-03-30T08:27:37.373Z,1.92
2023-03-30T08:30:06.088Z,1.65
2023-03-30T08:32:34.129Z,1.80
2023-03-30T08:35:03.653Z,1.83
2023-03-30T08:37:32.859Z,2.05
2023-03-30T08:40:00.767Z,1.90
2023-03-30T08:43:11.528Z,1.48
2023-03-30T08:45:42.744Z,2.10
2023-03-30T08:48:18.229Z,1.52
2023-03-30T08:50:55.896Z,2.00
2023-03-30T08:53:24.130Z,1.88
2023-03-30T08:55:55.191Z,1.45
2023-03-30T08:58:33.722Z,1.55
2023-03-30T09:01:09.357Z,1.55
2023-03-30T09:03:43.711Z,1.50
2023-03-30T09:06:24.546Z,1.50
2023-03-30T09:08:53.530Z,1.10
2023-03-30T09:11:31.294Z,1.35
2023-03-30T09:14:03.022Z,1.23
2023-03-30T09:16:39.248Z,1.25
2023-03-30T09:19:15.045Z,1.35
2023-03-30T09:21:46.161Z,2.08
2023-03-30T09:24:20.200Z,1.63
2023-03-30T09:26:56.381Z,1.77
2023-03-30T09:29:29.455Z,1.30
2023-03-30T09:32:04.147Z,1.27
2023-03-30T09:34:42.954Z,1.35
2023-03-30T09:37:16.313Z,1.33
2023-03-30T09:39:45.960Z,1.02
2023-03-30T09:42:26.789Z,1.75
2023-03-30T09:45:01.307Z,1.50
2023-03-30T09:47:35.568Z,1.02
2023-03-30T09:50:06.561Z,1.13
2023-03-30T09:52:38.823Z,1.25
2023-03-30T09:55:29.663Z,1.52
2023-03-30T09:58:13.120Z,1.42
2023-03-30T10:00:41.598Z,1.42
2023-03-30T10:03:19.731Z,1.43
2023-03-30T10:06:07.542Z,1.25
2023-03-30T10:08:43.291Z,1.50
2023-03-30T10:11:11.771Z,1.27
2023-03-30T10:13:43.530Z,1.55
2023-03-30T10:16:22.296Z,1.40
2023-03-30T10:18:54.940Z,1.35
2023-03-30T10:21:27.101Z,1.10
2023-03-30T10:24:08.223Z,1.08
2023-03-30T10:26:39.053Z,1.38
2023-03-30T10:29:11.115Z,1.58
2023-03-30T10:31:46.198Z,1.20
2023-03-30T10:34:18.332Z,1.10
2023-03-30T10:36:50.770Z,1.95
2023-03-30T10:39:24.697Z,1.80
2023-03-30T10:41:54.245Z,1.60
2023-03-30T10:44:26.262Z,1.17
2023-03-30T10:47:03.675Z,1.30
2023-03-30T10:49:42.048Z,1.50
2023-03-30T10:52:23.199Z,1.67
2023-03-30T10:55:00.210Z,1.58
2023-03-30T10:57:36.651Z,1.58
2023-03-30T11:00:20.314Z,1.98
2023-03-30T11:02:56.669Z,1.35
2023-03-30T11:05:32.539Z,1.73
2023-03-30T11:08:03.911Z,1.35
2023-03-30T11:10:36.986Z,1.02
2023-03-30T11:13:08.432Z,1.60
2023-03-30T11:15:42.006Z,1.60
2023-03-30T11:18:17.748Z,1.10
2023-03-30T11:20:53.913Z,1.52
2023-03-30T11:23:30.862Z,1.77
2023-03-30T11:26:03.754Z,1.67
2023-03-30T11:28:50.569Z,1.50
2023-03-30T11:31:44.345Z,1.60
2023-03-30T11:34:20.494Z,1.35
2023-03-30T11:36:55.749Z,1.70
2023-03-30T11:39:32.554Z,1.60
2023-03-30T11:42:10.913Z,1.70
2023-03-30T11:44:39.026Z,1.38
2023-03-30T11:47:33.740Z,1.65
2023-03-30T11:50:12.952Z,1.58
2023-03-30T11:52:53.563Z,1.35
2023-03-30T11:55:31.981Z,1.58
2023-03-30T11:58:11.600Z,1.55
2023-03-30T12:00:52.636Z,1.23
2023-03-30T12:03:36.934Z,1.55
2023-03-30T12:06:24.546Z,1.52
2023-03-30T12:09:03.541Z,1.33
2023-03-30T12:11:38.298Z,1.65
2023-03-30T12:14:22.317Z,1.58
2023-03-30T12:16:55.722Z,1.27
2023-03-30T12:19:26.710Z,1.40
2023-03-30T12:22:00.201Z,1.73
2023-03-30T12:24:34.923Z,1.30
2023-03-30T12:27:06.394Z,1.10
2023-03-30T12:32:28.651Z,1.38
2023-03-30T12:34:58.850Z,1.50
2023-03-30T12:37:34.498Z,1.10
2023-03-30T12:40:07.877Z,1.83
2023-03-30T12:42:39.782Z,1.35
2023-03-30T12:45:32.064Z,2.10
2023-03-30T12:48:20.859Z,1.50
2023-03-30T12:51:00.209Z,1.45
2023-03-30T12:53:46.897Z,1.40
2023-03-30T12:56:24.858Z,1.92
2023-03-30T12:59:18.320Z,1.73
2023-03-30T13:02:06.326Z,1.70
2023-03-30T13:04:37.215Z,1.50
2023-03-30T13:07:15.879Z,1.80
2023-03-30T13:09:56.523Z,1.45
2023-03-30T13:12:49.443Z,1.45
2023-03-30T13:15:42.565Z,1.63
2023-03-30T13:18:52.493Z,1.20
2023-03-30T13:21:23.930Z,1.23
2023-03-30T13:24:06.508Z,1.38
2023-03-30T13:26:43.636Z,1.63
2023-03-30T13:29:14.385Z,1.50
2023-03-30T13:32:04.343Z,1.70
2023-03-30T13:35:11.016Z,1.48
2023-03-30T13:37:55.303Z,1.05
2023-03-30T14:04:32.539Z,0.87
2023-03-30T14:10:57.092Z,1.07
2023-03-30T14:13:25.204Z,0.83
2023-03-30T14:15:53.557Z,0.83
2023-03-30T14:18:26.089Z,1.23
2023-03-30T14:20:58.488Z,1.03
2023-03-30T14:23:35.010Z,1.10
2023-03-30T14:26:06.310Z,1.13
2023-03-30T14:28:38.486Z,0.93
2023-03-30T14:31:14.497Z,1.13
2023-03-30T14:33:42.576Z,1.10
2023-03-30T14:36:12.656Z,1.23
2023-03-30T14:38:42.233Z,1.37
2023-03-30T14:41:16.595Z,0.90
2023-03-30T14:43:51.605Z,1.50
2023-03-30T14:46:19.744Z,1.20
2023-03-30T14:48:50.944Z,1.30
2023-03-30T14:51:27.457Z,1.47
2023-03-30T14:53:57.741Z,0.90
2023-03-30T14:56:28.154Z,1.33
2023-03-30T14:58:57.336Z,1.90
2023-03-30T15:01:31.545Z,1.53
2023-03-30T15:04:03.123Z,1.33
2023-03-30T15:06:32.005Z,1.27
2023-03-30T15:09:08.242Z,1.33
2023-03-30T15:11:40.457Z,1.30
2023-03-30T15:14:11.233Z,1.00
2023-03-30T15:16:40.849Z,1.40
2023-03-30T15:19:16.719Z,1.30
2023-03-30T15:21:44.805Z,1.43
2023-03-30T15:24:17.517Z,1.07
2023-03-30T15:26:50.495Z,1.17
2023-03-30T15:29:20.713Z,1.00
2023-03-30T15:32:00.800Z,1.20
2023-03-30T15:34:28.972Z,1.97
2023-03-30T15:36:57.598Z,1.27
2023-03-30T15:39:33.799Z,0.97
2023-03-30T15:42:11.509Z,1.10
2023-03-30T15:44:41.658Z,1.73
2023-03-30T15:47:15.997Z,1.13
2023-03-30T15:49:50.876Z,1.30
2023-03-30T15:52:25.063Z,1.60
2023-03-30T15:54:55.869Z,1.33
2023-03-30T15:57:29.769Z,1.50
2023-03-30T16:00:12.782Z,1.83
2023-03-30T16:02:42.853Z,1.67
2023-03-30T16:05:20.354Z,1.93
2023-03-30T16:07:48.818Z,1.67
2023-03-30T16:10:18.357Z,2.40
2023-03-30T16:12:49.723Z,1.63
2023-03-30T16:15:19.717Z,1.50
2023-03-30T16:17:48.003Z,1.73
2023-03-30T16:20:18.014Z,1.70
2023-03-30T16:22:47.351Z,1.70
2023-03-30T16:25:16.524Z,1.73
2023-03-30T16:27:45.561Z,1.93
2023-03-30T16:30:20.107Z,1.93
2023-03-30T16:32:48.438Z,1.87
2023-03-30T16:35:16.694Z,1.87
2023-03-30T16:37:44.762Z,1.37
2023-03-30T16:40:23.306Z,1.90
2023-03-30T16:42:51.293Z,2.07
2023-03-30T16:45:20.622Z,2.40
2023-03-30T16:47:48.687Z,2.03
2023-03-30T16:50:21.882Z,1.70
2023-03-30T16:52:52.767Z,1.60
2023-03-30T16:55:20.842Z,2.10
2023-03-30T16:57:48.881Z,2.57
2023-03-30T17:00:25.054Z,3.10
2023-03-30T17:02:53.172Z,2.17
2023-03-30T17:05:21.327Z,3.00
2023-03-30T17:07:49.412Z,2.70
2023-03-30T17:10:24.666Z,1.83
2023-03-30T17:12:53.258Z,2.10
2023-03-30T17:15:24.665Z,2.80
2023-03-30T17:17:52.954Z,2.77
2023-03-30T17:20:24.975Z,2.33
2023-03-30T17:22:53.198Z,2.00
2023-03-30T17:25:23.496Z,2.93
2023-03-30T17:27:52.540Z,4.90
2023-03-30T17:30:24.838Z,3.10
2023-03-30T17:32:55.153Z,4.40
2023-03-30T17:35:24.375Z,3.23
2023-03-30T17:37:53.144Z,2.97
2023-03-30T17:40:23.671Z,3.93
2023-03-30T17:42:51.697Z,3.73
2023-03-30T17:45:23.657Z,3.73
2023-03-30T17:47:52.222Z,5.27
2023-03-30T17:50:29.481Z,5.30
2023-03-30T17:52:59.592Z,5.47
2023-03-30T17:55:29.400Z,3.33
2023-03-30T17:58:00.996Z,5.60
2023-03-30T18:00:32.883Z,4.30
2023-03-30T18:03:01.766Z,5.53
2023-03-30T18:05:32.654Z,4.70
2023-03-30T18:08:00.822Z,5.43
2023-03-30T18:10:34.294Z,6.90
2023-03-30T18:13:02.409Z,4.77
2023-03-30T18:15:32.754Z,4.70
2023-03-30T18:18:02.452Z,2.67
2023-03-30T18:20:34.524Z,3.37
2023-03-30T18:23:02.865Z,2.60
2023-03-30T18:25:32.589Z,3.30
2023-03-30T18:28:01.689Z,2.60
2023-03-30T18:30:32.816Z,3.30
2023-03-30T18:33:01.239Z,3.47
2023-03-30T18:35:30.720Z,2.93
2023-03-30T18:37:59.837Z,3.20
2023-03-30T18:40:32.125Z,3.37
2023-03-30T18:43:01.009Z,2.10
2023-03-30T18:45:31.233Z,2.53
2023-03-30T18:48:01.441Z,2.90
2023-03-30T18:50:34.330Z,2.30
2023-03-30T18:53:02.792Z,3.20
2023-03-30T18:55:33.148Z,1.90
2023-03-30T18:58:02.693Z,2.30
2023-03-30T19:00:32.930Z,1.87
2023-03-30T19:03:03.693Z,2.23
2023-03-30T19:05:33.808Z,2.33
2023-03-30T19:08:02.370Z,2.10
2023-03-30T19:10:32.424Z,2.10
2023-03-30T19:13:00.455Z,2.00
2023-03-30T19:15:30.087Z,1.97
2023-03-30T19:17:58.377Z,1.57
2023-03-30T19:20:30.009Z,2.93
2023-03-30T19:22:58.141Z,1.60
2023-03-30T19:25:28.174Z,1.80
2023-03-30T19:28:03.821Z,2.17
2023-03-30T19:30:35.293Z,1.00
2023-03-30T19:33:07.321Z,1.60
2023-03-30T19:35:36.884Z,1.53
2023-03-30T19:38:05.038Z,1.40
2023-03-30T19:40:33.097Z,1.40
2023-03-30T19:43:01.010Z,0.90
2023-03-30T19:45:28.985Z,0.87
2023-03-30T19:47:56.950Z,1.17
2023-03-30T19:50:25.218Z,0.80
2023-03-30T19:52:55.300Z,0.90
2023-03-30T19:55:23.539Z,0.70
2023-03-30T19:57:51.614Z,1.10
2023-03-30T20:00:21.263Z,1.00
2023-03-30T20:02:51.453Z,0.90
2023-03-30T20:05:21.370Z,0.87
2023-03-30T20:07:50.614Z,0.60
2023-03-30T20:10:22.838Z,0.90
2023-03-30T20:12:51.803Z,1.10
2023-03-30T20:15:20.544Z,0.70
2023-03-30T20:17:48.692Z,1.10
2023-03-30T20:20:25.089Z,1.10
2023-03-30T20:22:56.486Z,1.20
2023-03-30T20:25:26.372Z,1.17
2023-03-30T20:27:54.645Z,1.00
2023-03-30T20:30:23.040Z,1.00
2023-03-30T20:33:06.268Z,1.00
2023-03-30T20:35:37.180Z,2.17
2023-03-30T20:38:05.850Z,5.30
2023-03-30T20:40:35.402Z,6.40
2023-03-30T20:43:03.726Z,6.93
2023-03-30T20:45:32.352Z,6.13
2023-03-30T20:48:06.052Z,5.43
2023-03-30T20:50:35.068Z,4.97
2023-03-30T20:53:03.003Z,4.20
2023-03-30T20:55:30.968Z,4.30
2023-03-30T20:58:00.619Z,3.23
2023-03-30T21:00:28.757Z,2.93
2023-03-30T21:02:56.756Z,2.97
2023-03-30T21:05:25.155Z,2.63
2023-03-30T21:07:55.238Z,2.67
2023-03-30T21:10:23.253Z,2.33
2023-03-30T21:12:51.510Z,2.63
2023-03-30T21:15:20.989Z,2.07
2023-03-30T21:17:49.097Z,1.93
2023-03-30T21:20:17.501Z,2.30
2023-03-30T21:22:45.777Z,1.47
2023-03-30T21:25:14.061Z,1.87
2023-03-30T21:27:42.018Z,1.60
2023-03-30T21:30:13.368Z,2.17
2023-03-30T21:32:43.310Z,1.47
2023-03-30T21:35:11.579Z,1.67
2023-03-30T21:37:40.077Z,1.77
2023-03-30T21:40:09.462Z,1.70
2023-03-30T21:42:37.489Z,1.60
2023-03-30T21:45:05.903Z,1.30
2023-03-30T21:47:33.882Z,2.20
2023-03-30T21:50:03.286Z,1.73
2023-03-30T21:52:31.662Z,1.73
2023-03-30T21:54:59.675Z,2.03
2023-03-30T21:57:27.862Z,2.63
2023-03-30T21:59:56.525Z,1.80
2023-03-30T22:02:24.920Z,1.60
2023-03-30T22:04:53.018Z,1.73
2023-03-30T22:07:22.548Z,1.90
2023-03-30T22:09:50.567Z,1.67
2023-03-30T22:12:20.412Z,1.60
2023-03-30T22:14:48.535Z,2.17
2023-03-30T22:17:18.682Z,2.43
2023-03-30T22:19:46.729Z,1.23
2023-03-30T22:22:14.850Z,1.83
2023-03-30T22:24:44.341Z,2.90
2023-03-30T22:27:13.243Z,1.77
2023-03-30T22:29:41.210Z,1.60
2023-03-30T22:32:09.982Z,2.13
2023-03-30T22:34:38.253Z,1.77
2023-03-30T22:37:06.250Z,2.10
2023-03-30T22:39:34.420Z,1.70
2023-03-30T22:42:03.883Z,2.00
2023-03-30T22:44:31.853Z,1.77
2023-03-30T22:46:59.853Z,1.80
2023-03-30T22:49:27.814Z,1.90
2023-03-30T22:51:55.715Z,1.73
2023-03-30T22:54:23.985Z,2.30
2023-03-30T22:56:51.969Z,2.23
2023-03-30T22:59:21.769Z,1.60
2023-03-30T23:01:51.140Z,2.03
2023-03-30T23:04:19.890Z,1.40
2023-03-30T23:06:47.974Z,1.70
2023-03-30T23:09:16.179Z,1.37
2023-03-30T23:11:45.932Z,1.60
2023-03-30T23:14:14.550Z,1.70
2023-03-30T23:16:44.000Z,1.83
2023-03-30T23:19:12.486Z,1.40
2023-03-30T23:21:41.093Z,1.60
2023-03-30T23:24:12.246Z,1.10
2023-03-30T23:26:40.725Z,1.27
2023-03-30T23:29:08.746Z,1.40
2023-03-30T23:31:36.895Z,1.50
2023-03-30T23:34:06.796Z,1.10
2023-03-30T23:36:34.947Z,1.20
2023-03-30T23:39:03.074Z,2.33
2023-03-30T23:41:31.199Z,1.40
2023-03-30T23:43:59.201Z,1.20
2023-03-30T23:46:27.438Z,1.13
2023-03-30T23:48:55.948Z,1.80
2023-03-30T23:51:25.377Z,1.13
2023-03-30T23:53:56.751Z,1.20
2023-03-30T23:56:27.731Z,1.70
2023-03-30T23:58:56.861Z,1.30
